createdAt,value
2022-12-12T00:01:53.441Z,70.40
2022-12-12T00:04:20.286Z,70.60
2022-12-12T00:06:47.352Z,70.41
2022-12-12T00:09:14.272Z,70.50
2022-12-12T00:11:41.220Z,70.39
2022-12-12T00:14:08.371Z,70.15
2022-12-12T00:16:35.314Z,70.74
2022-12-12T00:19:02.187Z,70.54
2022-12-12T00:21:29.485Z,70.88
2022-12-12T00:23:56.587Z,70.62
2022-12-12T00:26:29.328Z,70.56
2022-12-12T00:28:56.432Z,70.61
2022-12-12T00:31:23.422Z,70.80
2022-12-12T00:33:51.308Z,70.65
2022-12-12T00:36:19.110Z,70.82
2022-12-12T00:38:46.078Z,70.45
2022-12-12T00:41:12.959Z,70.47
2022-12-12T00:43:39.935Z,70.67
2022-12-12T00:46:06.845Z,71.15
2022-12-12T00:48:33.782Z,70.79
2022-12-12T00:51:06.400Z,70.92
2022-12-12T00:53:33.325Z,71.14
2022-12-12T00:56:00.217Z,70.54
2022-12-12T00:58:27.462Z,70.53
2022-12-12T01:00:54.529Z,71.00
2022-12-12T01:03:21.808Z,70.91
2022-12-12T01:05:48.956Z,70.64
2022-12-12T01:08:15.956Z,70.39
2022-12-12T01:10:42.924Z,71.07
2022-12-12T01:13:09.925Z,71.10
2022-12-12T01:15:36.899Z,71.15
2022-12-12T01:18:03.900Z,70.90
2022-12-12T01:20:30.955Z,70.91
2022-12-12T01:22:57.830Z,71.01
2022-12-12T01:25:24.806Z,70.62
2022-12-12T01:27:51.751Z,70.78
2022-12-12T01:30:19.901Z,71.11
2022-12-12T01:32:46.815Z,70.74
2022-12-12T01:35:14.009Z,71.02
2022-12-12T01:37:41.647Z,70.97
2022-12-12T01:40:12.373Z,71.11
2022-12-12T01:42:39.289Z,70.88
2022-12-12T01:45:06.724Z,70.64
2022-12-12T01:47:33.645Z,71.23
2022-12-12T01:50:06.285Z,71.33
2022-12-12T01:52:37.632Z,71.05
2022-12-12T01:55:05.697Z,71.14
2022-12-12T01:57:34.767Z,70.59
2022-12-12T02:00:01.817Z,70.54
2022-12-12T02:02:31.662Z,70.61
2022-12-12T02:05:00.167Z,71.38
2022-12-12T02:07:27.058Z,71.39
2022-12-12T02:09:54.025Z,70.69
2022-12-12T02:12:20.917Z,70.84
2022-12-12T02:14:49.551Z,71.08
2022-12-12T02:17:24.331Z,70.85
2022-12-12T02:19:57.141Z,71.15
2022-12-12T02:22:42.997Z,70.42
2022-12-12T02:25:16.064Z,70.77
2022-12-12T02:28:01.742Z,70.89
2022-12-12T02:31:02.907Z,71.14
2022-12-12T02:33:44.865Z,70.83
2022-12-12T02:36:13.897Z,71.38
2022-12-12T02:38:45.449Z,70.82
2022-12-12T02:41:40.135Z,70.96
2022-12-12T02:44:48.138Z,70.60
2022-12-12T02:47:30.280Z,70.61
2022-12-12T02:50:22.904Z,70.66
2022-12-12T02:52:49.937Z,70.73
2022-12-12T02:55:17.221Z,70.71
2022-12-12T02:57:44.418Z,70.48
2022-12-12T03:00:17.579Z,70.87
2022-12-12T03:02:53.394Z,71.22
2022-12-12T03:06:02.157Z,70.95
2022-12-12T03:08:35.089Z,71.00
2022-12-12T03:11:11.213Z,70.63
2022-12-12T03:13:57.186Z,70.66
2022-12-12T03:16:48.159Z,70.70
2022-12-12T03:19:40.724Z,70.19
2022-12-12T03:22:11.807Z,70.45
2022-12-12T03:24:49.402Z,70.21
2022-12-12T03:27:24.896Z,70.24
2022-12-12T03:30:06.827Z,69.77
2022-12-12T03:32:49.357Z,70.36
2022-12-12T03:35:36.371Z,69.76
2022-12-12T03:38:25.214Z,69.82
2022-12-12T03:40:59.110Z,70.09
2022-12-12T03:43:47.167Z,70.24
2022-12-12T03:46:22.818Z,70.42
2022-12-12T03:48:54.611Z,70.29
2022-12-12T03:51:37.333Z,69.58
2022-12-12T03:54:43.899Z,69.92
2022-12-12T03:57:22.914Z,69.51
2022-12-12T03:59:53.547Z,69.85
2022-12-12T04:02:32.531Z,70.26
2022-12-12T04:05:11.950Z,69.91
2022-12-12T04:07:44.363Z,70.25
2022-12-12T04:10:29.908Z,70.74
2022-12-12T04:13:09.074Z,69.61
2022-12-12T04:15:48.579Z,70.16
2022-12-12T04:18:43.285Z,69.99
2022-12-12T04:21:36.119Z,70.35
2022-12-12T04:24:14.611Z,70.25
2022-12-12T04:27:24.601Z,69.63
2022-12-12T04:29:51.461Z,70.06
2022-12-12T04:32:34.555Z,69.29
2022-12-12T04:35:10.337Z,69.86
2022-12-12T04:37:49.612Z,70.23
2022-12-12T04:40:22.809Z,69.64
2022-12-12T04:43:01.405Z,69.98
2022-12-12T04:45:30.924Z,69.68
2022-12-12T04:47:57.892Z,70.40
2022-12-12T04:50:25.752Z,70.41
2022-12-12T04:52:52.908Z,70.04
2022-12-12T04:55:23.123Z,70.00
2022-12-12T04:57:51.779Z,70.04
2022-12-12T05:00:20.267Z,70.29
2022-12-12T05:02:53.191Z,69.82
2022-12-12T05:05:53.770Z,68.88
2022-12-12T05:08:30.449Z,69.51
2022-12-12T05:11:00.232Z,69.57
2022-12-12T05:13:32.980Z,69.98
2022-12-12T05:16:00.600Z,69.76
2022-12-12T05:18:27.595Z,69.33
2022-12-12T05:20:54.549Z,70.12
2022-12-12T05:23:21.449Z,69.84
2022-12-12T05:25:48.444Z,70.20
2022-12-12T05:28:15.386Z,70.25
2022-12-12T05:30:42.468Z,69.27
2022-12-12T05:33:09.488Z,70.28
2022-12-12T05:35:36.808Z,69.30
2022-12-12T05:38:03.873Z,69.09
2022-12-12T05:40:31.013Z,69.50
2022-12-12T05:42:58.049Z,69.36
2022-12-12T05:45:24.961Z,69.17
2022-12-12T05:47:51.921Z,69.96
2022-12-12T05:50:18.900Z,69.54
2022-12-12T05:52:45.838Z,69.61
2022-12-12T05:55:12.874Z,69.53
2022-12-12T05:57:39.935Z,68.49
2022-12-12T06:00:08.001Z,69.41
2022-12-12T06:02:34.997Z,69.42
2022-12-12T06:05:02.038Z,69.48
2022-12-12T06:07:29.192Z,68.92
2022-12-12T06:09:56.171Z,69.07
2022-12-12T06:12:23.189Z,69.55
2022-12-12T06:14:50.171Z,69.41
2022-12-12T06:17:17.037Z,69.63
2022-12-12T06:19:43.973Z,69.03
2022-12-12T06:22:10.934Z,69.31
2022-12-12T06:24:37.899Z,69.83
2022-12-12T06:27:04.765Z,69.95
2022-12-12T06:29:31.983Z,69.85
2022-12-12T06:31:58.897Z,69.30
2022-12-12T06:34:25.997Z,69.19
2022-12-12T06:36:52.856Z,69.69
2022-12-12T06:39:19.812Z,69.62
2022-12-12T06:41:46.698Z,69.02
2022-12-12T06:44:13.569Z,68.72
2022-12-12T06:46:40.545Z,68.87
2022-12-12T06:49:09.979Z,69.17
2022-12-12T06:51:40.995Z,68.83
2022-12-12T06:54:07.870Z,69.20
2022-12-12T06:56:34.779Z,68.92
2022-12-12T06:59:01.734Z,69.36
2022-12-12T07:01:28.655Z,69.51
2022-12-12T07:03:55.639Z,69.09
2022-12-12T07:06:23.456Z,68.76
2022-12-12T07:08:50.645Z,68.70
2022-12-12T07:11:20.011Z,68.61
2022-12-12T07:13:47.046Z,69.57
2022-12-12T07:16:14.084Z,68.56
2022-12-12T07:18:41.169Z,69.71
2022-12-12T07:21:09.081Z,69.61
2022-12-12T07:23:36.035Z,69.57
2022-12-12T07:26:07.155Z,68.92
2022-12-12T07:28:34.151Z,69.03
2022-12-12T07:31:05.577Z,68.78
2022-12-12T07:33:42.601Z,68.64
2022-12-12T07:36:11.086Z,68.97
2022-12-12T07:38:38.165Z,69.26
2022-12-12T07:41:06.380Z,68.74
2022-12-12T07:43:38.545Z,68.68
2022-12-12T07:46:11.397Z,68.58
2022-12-12T07:48:38.318Z,68.51
2022-12-12T07:51:05.426Z,69.17
2022-12-12T07:53:32.343Z,68.94
2022-12-12T07:55:59.284Z,69.30
2022-12-12T07:58:26.237Z,68.79
2022-12-12T08:00:53.255Z,69.38
2022-12-12T08:03:20.229Z,69.83
2022-12-12T08:05:47.235Z,69.41
2022-12-12T08:08:14.173Z,69.07
2022-12-12T08:10:41.286Z,69.18
2022-12-12T08:13:08.459Z,68.74
2022-12-12T08:15:35.453Z,69.20
2022-12-12T08:18:02.342Z,68.77
2022-12-12T08:20:29.405Z,69.33
2022-12-12T08:22:56.304Z,69.80
2022-12-12T08:25:23.274Z,69.80
2022-12-12T08:27:50.162Z,69.35
2022-12-12T08:30:17.104Z,68.92
2022-12-12T08:32:44.012Z,68.99
2022-12-12T08:35:11.143Z,69.68
2022-12-12T08:37:38.423Z,69.80
2022-12-12T08:40:06.067Z,69.21
2022-12-12T08:42:32.945Z,69.29
2022-12-12T08:45:00.335Z,68.72
2022-12-12T08:47:27.429Z,69.66
2022-12-12T08:49:56.975Z,69.56
2022-12-12T08:52:23.875Z,69.63
2022-12-12T08:54:50.871Z,69.53
2022-12-12T08:57:25.622Z,69.58
2022-12-12T08:59:52.886Z,69.13
2022-12-12T09:02:19.931Z,69.51
2022-12-12T09:04:46.994Z,68.83
2022-12-12T09:07:14.069Z,69.19
2022-12-12T09:09:41.133Z,68.98
2022-12-12T09:12:08.479Z,69.31
2022-12-12T09:14:35.476Z,69.66
2022-12-12T09:17:02.412Z,69.90
2022-12-12T09:19:29.366Z,69.97
2022-12-12T09:21:56.313Z,69.07
2022-12-12T09:24:25.572Z,69.74
2022-12-12T09:26:52.536Z,69.44
2022-12-12T09:29:19.501Z,70.05
2022-12-12T09:31:47.027Z,69.74
2022-12-12T09:34:14.228Z,69.09
2022-12-12T09:36:41.176Z,69.28
2022-12-12T09:39:08.048Z,70.52
2022-12-12T09:41:35.012Z,69.98
2022-12-12T09:44:18.827Z,69.94
2022-12-12T09:46:55.661Z,69.07
2022-12-12T09:49:46.951Z,68.66
2022-12-12T09:52:35.112Z,70.10
2022-12-12T09:55:23.059Z,70.32
2022-12-12T09:57:59.101Z,69.41
2022-12-12T10:00:26.221Z,70.40
2022-12-12T10:03:05.466Z,69.87
2022-12-12T10:05:41.578Z,69.50
2022-12-12T10:08:19.043Z,69.81
2022-12-12T10:10:48.521Z,70.09
2022-12-12T10:13:23.687Z,69.86
2022-12-12T10:15:52.882Z,70.16
2022-12-12T10:18:32.306Z,68.83
2022-12-12T10:21:04.742Z,69.48
2022-12-12T10:23:51.080Z,69.31
2022-12-12T10:26:25.808Z,69.38
2022-12-12T10:28:54.196Z,69.58
2022-12-12T10:31:51.996Z,68.57
2022-12-12T10:34:34.069Z,69.26
2022-12-12T10:37:15.209Z,69.40
2022-12-12T10:40:03.866Z,69.29
2022-12-12T10:42:38.803Z,69.54
2022-12-12T10:45:25.897Z,69.88
2022-12-12T10:47:52.910Z,69.05
2022-12-12T10:50:19.721Z,69.10
2022-12-12T10:52:46.613Z,69.77
2022-12-12T10:55:33.167Z,69.03
2022-12-12T10:58:04.419Z,68.94
2022-12-12T11:00:39.158Z,69.60
2022-12-12T11:03:28.326Z,67.74
2022-12-12T11:05:56.151Z,68.87
2022-12-12T11:08:31.037Z,68.76
2022-12-12T11:11:07.193Z,69.02
2022-12-12T11:13:51.415Z,67.82
2022-12-12T11:16:29.153Z,69.68
2022-12-12T11:19:33.002Z,69.36
2022-12-12T11:21:59.949Z,69.38
2022-12-12T11:24:44.681Z,68.85
2022-12-12T11:27:20.447Z,67.25
2022-12-12T11:29:48.464Z,68.57
2022-12-12T11:32:20.018Z,68.88
2022-12-12T11:34:51.766Z,68.49
2022-12-12T11:37:23.462Z,68.91
2022-12-12T11:39:51.991Z,68.88
2022-12-12T11:42:29.548Z,67.21
2022-12-12T11:45:04.900Z,68.57
2022-12-12T11:47:38.858Z,68.69
2022-12-12T11:50:25.994Z,68.59
2022-12-12T11:52:58.959Z,69.26
2022-12-12T11:55:44.740Z,67.57
2022-12-12T11:58:28.274Z,69.60
2022-12-12T12:00:58.595Z,68.12
2022-12-12T12:03:51.361Z,69.75
2022-12-12T12:06:41.517Z,69.60
2022-12-12T12:09:08.385Z,68.45
2022-12-12T12:11:41.345Z,69.40
2022-12-12T12:14:27.144Z,67.41
2022-12-12T12:17:27.192Z,69.32
2022-12-12T12:19:54.075Z,68.71
2022-12-12T12:22:58.301Z,69.23
2022-12-12T12:25:34.383Z,69.24
2022-12-12T12:28:33.836Z,68.11
2022-12-12T12:31:17.017Z,68.94
2022-12-12T12:33:53.131Z,69.86
2022-12-12T12:36:49.237Z,69.08
2022-12-12T12:39:27.538Z,69.28
2022-12-12T12:42:33.049Z,68.60
2022-12-12T12:45:23.899Z,69.60
2022-12-12T12:48:19.104Z,69.31
2022-12-12T12:51:09.261Z,69.43
2022-12-12T12:53:57.741Z,69.82
2022-12-12T12:56:32.415Z,69.81
2022-12-12T12:59:04.532Z,69.95
2022-12-12T13:01:39.313Z,69.63
2022-12-12T13:04:12.025Z,69.88
2022-12-12T13:06:49.405Z,69.77
2022-12-12T13:09:42.064Z,68.87
2022-12-12T13:12:17.203Z,69.71
2022-12-12T13:15:27.142Z,69.85
2022-12-12T13:18:04.956Z,69.92
2022-12-12T13:20:59.221Z,69.70
2022-12-12T13:23:32.151Z,69.64
2022-12-12T13:26:12.636Z,69.50
2022-12-12T13:28:48.151Z,70.06
2022-12-12T13:31:21.017Z,70.37
2022-12-12T13:33:51.997Z,70.04
2022-12-12T13:36:30.234Z,70.40
2022-12-12T13:39:01.676Z,69.35
2022-12-12T13:41:54.720Z,69.69
2022-12-12T13:44:35.611Z,70.22
2022-12-12T13:47:04.158Z,70.50
2022-12-12T13:49:40.277Z,70.27
2022-12-12T13:52:25.615Z,69.41
2022-12-12T13:55:11.321Z,70.02
2022-12-12T13:58:06.043Z,69.91
2022-12-12T14:00:36.687Z,69.94
2022-12-12T14:03:09.924Z,69.73
2022-12-12T14:05:42.438Z,70.72
2022-12-12T14:08:12.486Z,70.22
2022-12-12T14:10:45.461Z,69.99
2022-12-12T14:13:21.617Z,70.45
2022-12-12T14:16:14.915Z,70.59
2022-12-12T14:19:20.337Z,69.97
2022-12-12T14:21:47.837Z,70.42
2022-12-12T14:24:33.073Z,70.60
2022-12-12T14:27:00.985Z,70.50
2022-12-12T14:29:29.116Z,70.55
2022-12-12T14:32:10.951Z,70.46
2022-12-12T14:34:57.263Z,70.21
2022-12-12T14:37:39.044Z,69.88
2022-12-12T14:40:09.206Z,70.10
2022-12-12T14:43:18.714Z,70.67
2022-12-12T14:45:51.571Z,70.91
2022-12-12T14:48:29.113Z,70.86
2022-12-12T14:51:05.727Z,70.78
2022-12-12T14:53:44.218Z,69.90
2022-12-12T14:56:15.118Z,70.47
2022-12-12T14:58:54.309Z,70.51
2022-12-12T15:01:33.120Z,70.19
2022-12-12T15:04:00.317Z,70.62
2022-12-12T15:06:29.403Z,70.98
2022-12-12T15:08:58.338Z,70.38
2022-12-12T15:11:26.991Z,70.27
2022-12-12T15:13:55.625Z,70.29
2022-12-12T15:16:42.808Z,70.09
2022-12-12T15:19:15.416Z,70.74
2022-12-12T15:21:45.757Z,70.63
2022-12-12T15:24:23.468Z,71.57
2022-12-12T15:26:52.201Z,70.72
2022-12-12T15:29:21.177Z,70.65
2022-12-12T15:31:48.394Z,70.78
2022-12-12T15:34:34.266Z,70.79
2022-12-12T15:37:24.154Z,71.17
2022-12-12T15:40:06.751Z,71.18
2022-12-12T15:42:33.723Z,71.51
2022-12-12T15:45:01.018Z,71.60
2022-12-12T15:47:28.012Z,71.44
2022-12-12T15:49:55.135Z,71.02
2022-12-12T15:52:25.969Z,72.11
2022-12-12T15:54:54.960Z,71.72
2022-12-12T15:57:26.930Z,71.66
2022-12-12T16:00:02.320Z,71.10
2022-12-12T16:02:32.819Z,71.49
2022-12-12T16:05:24.054Z,71.32
2022-12-12T16:07:51.015Z,71.50
2022-12-12T16:10:17.825Z,71.02
2022-12-12T16:12:58.163Z,71.18
2022-12-12T16:15:37.921Z,71.01
2022-12-12T16:18:15.357Z,70.94
2022-12-12T16:20:47.514Z,71.23
2022-12-12T16:23:23.238Z,70.90
2022-12-12T16:25:50.375Z,71.05
2022-12-12T16:28:25.767Z,71.99
2022-12-12T16:31:00.767Z,71.88
2022-12-12T16:33:38.062Z,71.52
2022-12-12T16:36:11.655Z,71.10
2022-12-12T16:38:40.282Z,71.60
2022-12-12T16:41:09.128Z,71.72
2022-12-12T16:43:36.132Z,71.31
2022-12-12T16:46:06.408Z,71.09
2022-12-12T16:48:34.948Z,71.49
2022-12-12T16:51:05.137Z,71.66
2022-12-12T16:53:32.542Z,71.36
2022-12-12T16:56:01.414Z,71.86
2022-12-12T16:58:28.567Z,71.63
2022-12-12T17:00:55.748Z,71.86
2022-12-12T17:03:23.687Z,71.77
2022-12-12T17:05:50.705Z,71.48
2022-12-12T17:08:18.340Z,71.16
2022-12-12T17:10:46.044Z,71.53
2022-12-12T17:13:17.887Z,71.89
2022-12-12T17:15:44.908Z,71.17
2022-12-12T17:18:11.827Z,71.26
2022-12-12T17:20:38.834Z,71.70
2022-12-12T17:23:30.079Z,71.32
2022-12-12T17:26:03.576Z,71.84
2022-12-12T17:28:31.743Z,71.23
2022-12-12T17:30:58.835Z,72.12
2022-12-12T17:33:26.138Z,71.56
2022-12-12T17:36:06.287Z,71.16
2022-12-12T17:38:33.674Z,71.67
2022-12-12T17:41:05.039Z,72.02
2022-12-12T17:43:32.095Z,71.94
2022-12-12T17:45:59.817Z,72.32
2022-12-12T17:48:33.191Z,72.44
2022-12-12T17:51:01.360Z,71.97
2022-12-12T17:53:32.514Z,72.10
2022-12-12T17:56:01.237Z,71.44
2022-12-12T17:58:38.478Z,72.82
2022-12-12T18:01:12.753Z,72.01
2022-12-12T18:03:40.320Z,71.64
2022-12-12T18:06:08.485Z,71.48
2022-12-12T18:08:36.972Z,72.07
2022-12-12T18:11:08.934Z,71.87
2022-12-12T18:13:36.265Z,71.75
2022-12-12T18:16:03.310Z,72.00
2022-12-12T18:18:30.300Z,71.98
2022-12-12T18:20:57.160Z,71.64
2022-12-12T18:23:24.158Z,71.45
2022-12-12T18:25:51.031Z,71.52
2022-12-12T18:28:18.127Z,71.59
2022-12-12T18:30:45.069Z,71.93
2022-12-12T18:33:12.059Z,72.06
2022-12-12T18:35:38.969Z,71.59
2022-12-12T18:38:06.642Z,71.86
2022-12-12T18:40:34.359Z,71.48
2022-12-12T18:43:01.379Z,72.07
2022-12-12T18:45:28.359Z,72.15
2022-12-12T18:47:55.877Z,71.87
2022-12-12T18:50:22.757Z,71.80
2022-12-12T18:52:49.830Z,71.97
2022-12-12T18:55:16.830Z,72.32
2022-12-12T18:57:43.851Z,71.59
2022-12-12T19:00:11.467Z,72.35
2022-12-12T19:02:40.627Z,71.81
2022-12-12T19:05:07.813Z,71.54
2022-12-12T19:07:34.777Z,72.45
2022-12-12T19:10:01.710Z,71.97
2022-12-12T19:12:28.847Z,71.94
2022-12-12T19:17:43.149Z,72.44
2022-12-12T19:20:10.822Z,72.46
2022-12-12T19:22:45.458Z,72.09
2022-12-12T19:25:18.817Z,71.62
2022-12-12T19:27:45.893Z,72.24
2022-12-12T19:30:13.942Z,72.21
2022-12-12T19:32:41.715Z,72.40
2022-12-12T19:35:08.776Z,72.44
2022-12-12T19:37:36.301Z,71.70
2022-12-12T19:40:03.453Z,71.81
2022-12-12T19:42:30.622Z,71.14
2022-12-12T19:44:57.519Z,72.03
2022-12-12T19:47:24.557Z,72.01
2022-12-12T19:49:51.665Z,71.61
2022-12-12T19:52:19.891Z,72.28
2022-12-12T19:54:47.152Z,72.27
2022-12-12T19:57:14.095Z,72.15
2022-12-12T19:59:41.175Z,72.29
2022-12-12T20:02:09.653Z,71.61
2022-12-12T20:04:38.523Z,71.39
2022-12-12T20:07:06.120Z,71.85
2022-12-12T20:09:34.936Z,71.81
2022-12-12T20:12:01.937Z,72.67
2022-12-12T20:14:30.525Z,72.41
2022-12-12T20:16:57.757Z,72.45
2022-12-12T20:19:29.092Z,72.33
2022-12-12T20:22:01.240Z,71.68
2022-12-12T20:24:29.224Z,72.23
2022-12-12T20:26:56.247Z,71.90
2022-12-12T20:29:23.594Z,71.89
2022-12-12T20:31:50.911Z,71.85
2022-12-12T20:34:19.086Z,72.13
2022-12-12T20:36:46.722Z,72.67
2022-12-12T20:39:22.362Z,71.55
2022-12-12T20:41:53.978Z,72.32
2022-12-12T20:44:21.100Z,71.88
2022-12-12T20:46:48.086Z,71.95
2022-12-12T20:49:17.600Z,72.42
2022-12-12T20:52:00.393Z,72.07
2022-12-12T20:54:28.545Z,71.98
2022-12-12T20:56:56.023Z,71.93
2022-12-12T20:59:23.948Z,72.39
2022-12-12T21:01:51.373Z,71.56
2022-12-12T21:04:18.555Z,71.59
2022-12-12T21:06:48.491Z,72.13
2022-12-12T21:09:24.859Z,71.85
2022-12-12T21:11:58.152Z,72.30
2022-12-12T21:14:26.781Z,72.41
2022-12-12T21:16:53.873Z,71.42
2022-12-12T21:19:23.793Z,72.03
2022-12-12T21:21:51.170Z,71.63
2022-12-12T21:24:18.110Z,71.72
2022-12-12T21:26:46.234Z,72.45
2022-12-12T21:29:13.293Z,71.94
2022-12-12T21:31:48.173Z,71.83
2022-12-12T21:34:18.419Z,71.47
2022-12-12T21:36:45.445Z,71.63
2022-12-12T21:39:12.389Z,72.50
2022-12-12T21:41:41.674Z,72.39
2022-12-12T21:44:08.770Z,71.56
2022-12-12T21:46:35.677Z,72.27
2022-12-12T21:49:21.615Z,72.23
2022-12-12T21:51:48.548Z,72.37
2022-12-12T21:54:15.686Z,72.20
2022-12-12T21:56:42.806Z,71.89
2022-12-12T21:59:10.840Z,71.56
2022-12-12T22:01:37.804Z,72.12
2022-12-12T22:04:04.907Z,71.43
2022-12-12T22:06:33.478Z,71.97
2022-12-12T22:09:01.152Z,71.34
2022-12-12T22:11:48.233Z,72.29
2022-12-12T22:14:17.456Z,71.62
2022-12-12T22:16:44.919Z,71.89
2022-12-12T22:19:12.678Z,72.23
2022-12-12T22:21:39.604Z,72.09
2022-12-12T22:24:07.076Z,71.85
2022-12-12T22:26:38.637Z,71.92
2022-12-12T22:29:07.144Z,71.37
2022-12-12T22:31:35.311Z,71.54
2022-12-12T22:34:04.366Z,72.27
2022-12-12T22:36:32.860Z,71.34
2022-12-12T22:39:00.139Z,71.94
2022-12-12T22:41:27.697Z,72.04
2022-12-12T22:43:55.650Z,72.04
2022-12-12T22:46:22.986Z,71.68
2022-12-12T22:48:50.043Z,71.59
2022-12-12T22:51:21.814Z,71.33
2022-12-12T22:53:48.742Z,72.09
2022-12-12T22:56:16.019Z,71.73
2022-12-12T22:58:43.046Z,71.95
2022-12-12T23:01:12.453Z,71.59
2022-12-12T23:03:39.409Z,71.54
2022-12-12T23:06:11.612Z,71.75
2022-12-12T23:08:38.565Z,71.19
2022-12-12T23:11:07.311Z,71.81
2022-12-12T23:13:34.666Z,71.93
2022-12-12T23:16:08.432Z,70.94
2022-12-12T23:18:37.147Z,71.94
2022-12-12T23:21:05.087Z,71.87
2022-12-12T23:23:32.077Z,71.19
2022-12-12T23:26:06.172Z,71.19
2022-12-12T23:28:34.491Z,71.67
2022-12-12T23:31:01.734Z,71.20
2022-12-12T23:33:28.747Z,71.34
2022-12-12T23:35:55.640Z,70.99
2022-12-12T23:38:22.602Z,71.24
2022-12-12T23:40:49.686Z,71.43
2022-12-12T23:43:16.663Z,71.86
2022-12-12T23:45:44.069Z,71.23
2022-12-12T23:48:11.079Z,71.29
2022-12-12T23:50:37.943Z,71.56
2022-12-12T23:53:10.334Z,71.38
2022-12-12T23:55:37.679Z,71.42
2022-12-12T23:58:04.662Z,71.72
